Map

Track Data

SID SEASON NUMBER BASIN SUBBASIN NAME ISO_TIME NATURE LAT LON WMO_WIND WMO_PRES WMO_AGENCY TRACK_TYPE DIST2LAND LANDFALL IFLAG USA_AGENCY USA_ATCF_ID USA_LAT USA_LON USA_RECORD USA_STATUS USA_WIND USA_PRES USA_SSHS USA_R34_NE USA_R34_SE USA_R34_SW USA_R34_NW USA_R50_NE USA_R50_SE USA_R50_SW USA_R50_NW USA_R64_NE USA_R64_SE USA_R64_SW USA_R64_NW USA_POCI USA_ROCI USA_RMW USA_EYE TOKYO_LAT TOKYO_LON TOKYO_GRADE TOKYO_WIND TOKYO_PRES TOKYO_R50_DIR TOKYO_R50_LONG TOKYO_R50_SHORT TOKYO_R30_DIR TOKYO_R30_LONG TOKYO_R30_SHORT TOKYO_LAND CMA_LAT CMA_LON CMA_CAT CMA_WIND CMA_PRES HKO_LAT HKO_LON HKO_CAT HKO_WIND HKO_PRES NEWDELHI_LAT NEWDELHI_LON NEWDELHI_GRADE NEWDELHI_WIND NEWDELHI_PRES NEWDELHI_CI NEWDELHI_DP NEWDELHI_POCI REUNION_LAT REUNION_LON REUNION_TYPE REUNION_WIND REUNION_PRES REUNION_TNUM REUNION_CI REUNION_RMW REUNION_R34_NE REUNION_R34_SE REUNION_R34_SW REUNION_R34_NW REUNION_R50_NE REUNION_R50_SE REUNION_R50_SW REUNION_R50_NW REUNION_R64_NE REUNION_R64_SE REUNION_R64_SW REUNION_R64_NW BOM_LAT BOM_LON BOM_TYPE BOM_WIND BOM_PRES BOM_TNUM BOM_CI BOM_RMW BOM_R34_NE BOM_R34_SE BOM_R34_SW BOM_R34_NW BOM_R50_NE BOM_R50_SE BOM_R50_SW BOM_R50_NW BOM_R64_NE BOM_R64_SE BOM_R64_SW BOM_R64_NW BOM_ROCI BOM_POCI BOM_EYE BOM_POS_METHOD BOM_PRES_METHOD NADI_LAT NADI_LON NADI_CAT NADI_WIND NADI_PRES WELLINGTON_LAT WELLINGTON_LON WELLINGTON_WIND WELLINGTON_PRES DS824_LAT DS824_LON DS824_STAGE DS824_WIND DS824_PRES TD9636_LAT TD9636_LON TD9636_STAGE TD9636_WIND TD9636_PRES TD9635_LAT TD9635_LON TD9635_WIND TD9635_PRES TD9635_ROCI NEUMANN_LAT NEUMANN_LON NEUMANN_CLASS NEUMANN_WIND NEUMANN_PRES MLC_LAT MLC_LON MLC_CLASS MLC_WIND MLC_PRES USA_GUST BOM_GUST BOM_GUST_PER REUNION_GUST REUNION_GUST_PER USA_SEAHGT USA_SEARAD_NE USA_SEARAD_SE USA_SEARAD_SW USA_SEARAD_NW STORM_SPEED STORM_DIR
1983271N12242 1983 61 EP MM OCTAVE 1983-09-27 18:00:00 TS 11.8000 -118.300 25 hurdat_epa main 1521 1521 O_________O___ hurdat_epa EP151983 11.8000 -118.300 TD 25 -1 11.8000 -118.300 1 25 12 290
1983271N12242 1983 61 EP MM OCTAVE 1983-09-27 21:00:00 TS 12.0005 -118.865 main 1541 1538 P_________P___ EP151983 11.9978 -118.867 TD 27 -1 12.0088 -118.859 1 27 12 290
1983271N12242 1983 61 EP MM OCTAVE 1983-09-28 00:00:00 TS 12.2000 -119.400 30 hurdat_epa main 1556 1554 O_________O___ hurdat_epa EP151983 12.2000 -119.400 TD 30 -1 12.2000 -119.400 1 30 11 292
1983271N12242 1983 61 EP MM OCTAVE 1983-09-28 03:00:00 TS 12.3966 -119.881 main 1573 1572 P_________P___ EP151983 12.4074 -119.873 TD 30 -1 12.3642 -119.905 1 30 10 293
1983271N12242 1983 61 EP MM OCTAVE 1983-09-28 06:00:00 TS 12.5798 -120.316 30 hurdat_epa main 1585 1585 O_________P___ hurdat_epa EP151983 12.6000 -120.300 TD 30 -1 12.5192 -120.363 1 30 9 291
1983271N12242 1983 61 EP MM OCTAVE 1983-09-28 09:00:00 TS 12.7236 -120.733 main 1606 1605 P_________P___ EP151983 12.7350 -120.723 TD 30 -1 12.6896 -120.764 1 30 8 293
1983271N12242 1983 61 EP MM OCTAVE 1983-09-28 12:00:00 TS 12.9000 -121.100 30 hurdat_epa main 1620 1614 O_________O___ hurdat_epa EP151983 12.9000 -121.100 TD 30 -1 12.9000 -121.100 1 30 8 304
1983271N12242 1983 61 EP MM OCTAVE 1983-09-28 15:00:00 TS 13.1790 -121.435 main 1614 1606 P_________P___ EP151983 13.1700 -121.445 TD 35 0 13.2060 -121.405 1 33 8 317
1983271N12242 1983 61 EP MM OCTAVE 1983-09-28 18:00:00 TS 13.5124 -121.686 40 hurdat_epa main 1606 1578 O_________P___ hurdat_epa EP151983 13.5000 -121.700 TS 40 0 13.5497 -121.642 1 37 8 331
1983271N12242 1983 61 EP MM OCTAVE 1983-09-28 21:00:00 TS 13.8721 -121.836 main 1578 1559 P_________P___ EP151983 13.8649 -121.845 TS 42 0 13.8936 -121.808 1 41 7 343
1983271N12242 1983 61 EP MM OCTAVE 1983-09-29 00:00:00 TS 14.2000 -121.900 45 hurdat_epa main 1559 1541 O_________O___ hurdat_epa EP151983 14.2000 -121.900 TS 45 0 14.2000 -121.900 2 45 6 350
1983271N12242 1983 61 EP MM OCTAVE 1983-09-29 03:00:00 TS 14.4290 -121.932 main 1541 1524 P_________P___ EP151983 14.4300 -121.930 TS 42 0 14.4261 -121.938 2 43 4 0
1983271N12242 1983 61 EP MM OCTAVE 1983-09-29 06:00:00 TS 14.6025 -121.901 40 hurdat_epa main 1524 1500 O_________P___ hurdat_epa EP151983 14.6000 -121.900 TS 40 0 14.6098 -121.905 2 42 4 17
1983271N12242 1983 61 EP MM OCTAVE 1983-09-29 09:00:00 TS 14.7647 -121.822 main 1500 1485 P_________P___ EP151983 14.7650 -121.823 TS 40 0 14.7636 -121.820 2 41 4 33
1983271N12242 1983 61 EP MM OCTAVE 1983-09-29 12:00:00 TS 14.9000 -121.700 40 hurdat_epa main 1485 1469 O_________O___ hurdat_epa EP151983 14.9000 -121.700 TS 40 0 14.9000 -121.700 2 40 4 46
1983271N12242 1983 61 EP MM OCTAVE 1983-09-29 15:00:00 TS 15.0088 -121.564 main 1469 1447 P_________P___ EP151983 15.0000 -121.557 TS 40 0 15.0353 -121.583 2 38 4 52
1983271N12242 1983 61 EP MM OCTAVE 1983-09-29 18:00:00 TS 15.1144 -121.409 40 hurdat_epa main 1447 1431 O_________P___ hurdat_epa EP151983 15.1000 -121.400 TS 40 0 15.1575 -121.437 2 37 4 51
1983271N12242 1983 61 EP MM OCTAVE 1983-09-29 21:00:00 TS 15.2509 -121.256 main 1423 1400 P_________P___ EP151983 15.2425 -121.250 TS 37 0 15.2759 -121.273 2 36 4 46
1983271N12242 1983 61 EP MM OCTAVE 1983-09-30 00:00:00 TS 15.4000 -121.100 35 hurdat_epa main 1400 1385 O_________O___ hurdat_epa EP151983 15.4000 -121.100 TS 35 0 15.4000 -121.100 2 35 4 45
1983271N12242 1983 61 EP MM OCTAVE 1983-09-30 03:00:00 TS 15.5380 -120.954 main 1385 1354 P_________P___ EP151983 15.5500 -120.957 TS 35 0 15.5021 -120.944 2 35 4 46
1983271N12242 1983 61 EP MM OCTAVE 1983-09-30 06:00:00 TS 15.6793 -120.795 35 hurdat_epa main 1354 1332 O_________P___ hurdat_epa EP151983 15.7000 -120.800 TS 35 0 15.6174 -120.779 2 35 4 50
1983271N12242 1983 61 EP MM OCTAVE 1983-09-30 09:00:00 TS 15.8141 -120.617 main 1332 1301 P_________P___ EP151983 15.8275 -120.622 TS 35 0 15.7740 -120.600 2 35 5 50
1983271N12242 1983 61 EP MM OCTAVE 1983-09-30 12:00:00 TS 16.0000 -120.400 35 hurdat_epa main 1301 1263 O_________O___ hurdat_epa EP151983 16.0000 -120.400 TS 35 0 16.0000 -120.400 2 35 7 47
1983271N12242 1983 61 EP MM OCTAVE 1983-09-30 15:00:00 TS 16.2607 -120.115 main 1254 1208 P_________P___ EP151983 16.2476 -120.100 TS 32 -1 16.2999 -120.160 2 33 8 42
1983271N12242 1983 61 EP MM OCTAVE 1983-09-30 18:00:00 TS 16.6182 -119.825 30 hurdat_epa main 1208 1152 O_________P___ hurdat_epa EP151983 16.6000 -119.800 TD 30 -1 16.6728 -119.900 2 32 10 31
1983271N12242 1983 61 EP MM OCTAVE 1983-09-30 21:00:00 TS 17.0854 -119.599 main 1152 1096 P_________P___ EP151983 17.0774 -119.585 TD 30 -1 17.1093 -119.641 2 31 11 22
1983271N12242 1983 61 EP MM OCTAVE 1983-10-01 00:00:00 TS 17.6000 -119.400 30 hurdat_epa main 1096 1049 O_________O___ hurdat_epa EP151983 17.6000 -119.400 TD 30 -1 17.6000 -119.400 1 30 10 22
1983271N12242 1983 61 EP MM OCTAVE 1983-10-01 03:00:00 TS 18.0451 -119.196 main 1049 994 P_________P___ EP151983 18.0200 -119.192 TD 30 -1 18.1205 -119.207 1 28 10 21
1983271N12242 1983 61 EP MM OCTAVE 1983-10-01 06:00:00 TS 18.5475 -119.009 30 hurdat_epa main 994 931 O_________P___ hurdat_epa EP151983 18.5000 -119.000 TD 30 -1 18.6898 -119.034 1 27 12 16
1983271N12242 1983 61 EP MM OCTAVE 1983-10-01 09:00:00 TS 19.1942 -118.844 main 924 863 P_________P___ EP151983 19.1625 -118.835 TD 27 -1 19.2893 -118.869 1 26 14 12
1983271N12242 1983 61 EP MM OCTAVE 1983-10-01 12:00:00 TS 19.9000 -118.700 25 hurdat_epa main 863 806 O_________O___ hurdat_epa EP151983 19.9000 -118.700 TD 25 -1 19.9000 -118.700 1 25 14 10
1983271N12242 1983 61 EP MM OCTAVE 1983-10-01 15:00:00 TS 20.6027 -118.591 main 806 759 P_________P___ EP151983 20.6299 -118.622 TD 25 -1 20.5212 -118.499 1 25 14 10
1983271N12242 1983 61 EP MM OCTAVE 1983-10-01 18:00:00 TS 21.2612 -118.448 25 hurdat_epa main 744 698 O_________P___ hurdat_epa EP151983 21.3000 -118.500 TD 25 -1 21.1450 -118.293 1 25 13 18
1983271N12242 1983 61 EP MM OCTAVE 1983-10-01 21:00:00 TS 21.8148 -118.178 main 698 644 P_________P___ EP151983 21.8377 -118.208 TD 25 -1 21.7463 -118.090 1 25 12 26
1983271N12242 1983 61 EP MM OCTAVE 1983-10-02 00:00:00 TS 22.3000 -117.900 25 hurdat_epa main 644 602 O_________O___ hurdat_epa EP151983 22.3000 -117.900 TD 25 -1 22.3000 -117.900 1 25 10 24
1983271N12242 1983 61 EP MM OCTAVE 1983-10-02 03:00:00 TS 22.7708 -117.728 main 593 550 P_________P___ EP151983 22.7649 -117.727 TD 25 -1 22.7884 -117.730 1 25 10 17
1983271N12242 1983 61 EP MM OCTAVE 1983-10-02 06:00:00 TS 23.2056 -117.594 25 hurdat_epa main 550 508 O_________P___ hurdat_epa EP151983 23.2000 -117.600 TD 25 -1 23.2225 -117.578 1 25 9 17
1983271N12242 1983 61 EP MM OCTAVE 1983-10-02 09:00:00 TS 23.6108 -117.452 main 508 460 P_________P___ EP151983 23.6076 -117.458 TD 25 -1 23.6203 -117.436 1 25 8 19
1983271N12242 1983 61 EP MM OCTAVE 1983-10-02 12:00:00 TS 24.0000 -117.300 25 hurdat_epa main 460 O_________O___ hurdat_epa EP151983 24.0000 -117.300 TD 25 -1 24.0000 -117.300 1 25 8 20

About IBTrACS Database

This database is a web-friendly format of International Best Track Archive for Climate Stewardship (IBTrACS), a global best track data archive curated by NOAA dating back to 1842.

Updated: 2021-12-03